createdAt,value
2018-06-24T00:01:09.508Z,11.80
2018-06-24T00:03:41.198Z,11.80
2018-06-24T00:06:12.853Z,11.80
2018-06-24T00:08:45.012Z,11.80
2018-06-24T00:11:16.984Z,11.80
2018-06-24T00:13:48.798Z,11.80
2018-06-24T00:16:20.458Z,11.80
2018-06-24T00:18:59.856Z,11.90
2018-06-24T00:21:31.845Z,12.00
2018-06-24T00:24:04.087Z,12.10
2018-06-24T00:26:36.253Z,12.10
2018-06-24T00:29:08.022Z,12.10
2018-06-24T00:31:39.460Z,12.10
2018-06-24T00:34:11.215Z,12.20
2018-06-24T00:36:42.972Z,12.20
2018-06-24T00:39:14.476Z,12.30
2018-06-24T00:41:46.562Z,12.40
2018-06-24T00:44:19.129Z,12.50
2018-06-24T00:46:51.487Z,12.50
2018-06-24T00:49:23.128Z,12.40
2018-06-24T00:51:55.330Z,12.50
2018-06-24T00:54:26.983Z,12.50
2018-06-24T00:56:58.655Z,12.40
2018-06-24T00:59:40.686Z,12.40
2018-06-24T01:02:12.280Z,12.50
2018-06-24T01:04:43.368Z,12.30
2018-06-24T01:07:15.699Z,12.40
2018-06-24T01:09:47.675Z,12.30
2018-06-24T01:12:19.015Z,12.20
2018-06-24T01:14:51.230Z,12.10
2018-06-24T01:17:27.422Z,12.00
2018-06-24T01:20:00.169Z,11.90
2018-06-24T01:22:34.792Z,11.90
2018-06-24T01:25:06.130Z,11.90
2018-06-24T01:27:38.337Z,11.90
2018-06-24T01:30:10.715Z,11.90
2018-06-24T01:32:42.913Z,12.00
2018-06-24T01:35:15.231Z,12.10
2018-06-24T01:37:48.454Z,12.20
2018-06-24T01:40:20.315Z,12.20
2018-06-24T01:42:56.754Z,12.20
2018-06-24T01:45:29.362Z,12.30
2018-06-24T01:48:07.523Z,12.30
2018-06-24T01:50:39.742Z,12.20
2018-06-24T01:53:16.472Z,12.20
2018-06-24T01:55:48.608Z,12.10
2018-06-24T01:58:20.976Z,12.10
2018-06-24T02:00:52.479Z,12.10
2018-06-24T02:03:24.636Z,12.00
2018-06-24T02:05:56.391Z,11.90
2018-06-24T02:08:28.054Z,11.80
2018-06-24T02:10:59.908Z,11.70
2018-06-24T02:13:32.812Z,11.70
2018-06-24T02:16:04.539Z,11.50
2018-06-24T02:18:35.789Z,11.50
2018-06-24T02:21:07.714Z,11.40
2018-06-24T02:23:40.170Z,11.40
2018-06-24T02:26:11.825Z,11.50
2018-06-24T02:28:43.771Z,11.50
2018-06-24T02:32:19.813Z,11.50
2018-06-24T02:34:51.509Z,11.50
2018-06-24T02:37:24.416Z,11.50
2018-06-24T02:39:57.854Z,11.40
2018-06-24T02:42:29.244Z,11.50
2018-06-24T02:45:01.515Z,11.50
2018-06-24T02:47:33.443Z,11.60
2018-06-24T02:50:04.722Z,11.80
2018-06-24T02:52:36.933Z,11.90
2018-06-24T02:55:08.694Z,12.00
2018-06-24T02:57:40.837Z,11.90
2018-06-24T03:00:12.803Z,11.90
2018-06-24T03:02:45.405Z,11.90
2018-06-24T03:05:18.412Z,11.80
2018-06-24T03:07:50.265Z,11.80
2018-06-24T03:10:21.777Z,11.70
2018-06-24T03:12:54.569Z,11.60
2018-06-24T03:15:26.842Z,11.50
2018-06-24T03:21:22.651Z,11.50
2018-06-24T03:24:25.528Z,11.50
2018-06-24T03:27:05.832Z,11.40
2018-06-24T03:29:38.383Z,11.50
2018-06-24T03:32:10.116Z,11.50
2018-06-24T03:34:42.010Z,11.50
2018-06-24T03:37:14.036Z,11.40
2018-06-24T03:39:45.730Z,11.30
2018-06-24T03:42:17.297Z,11.20
2018-06-24T03:44:49.383Z,11.10
2018-06-24T03:47:20.989Z,11.10
2018-06-24T03:49:52.808Z,11.10
2018-06-24T03:52:24.530Z,11.10
2018-06-24T03:55:02.024Z,11.20
2018-06-24T03:57:34.472Z,11.30
2018-06-24T04:00:13.121Z,11.30
2018-06-24T04:02:46.181Z,11.40
2018-06-24T04:05:17.152Z,11.40
2018-06-24T04:07:52.559Z,11.50
2018-06-24T04:10:24.139Z,11.50
2018-06-24T04:13:05.991Z,11.50
2018-06-24T04:15:38.315Z,11.50
2018-06-24T04:18:10.342Z,11.50
2018-06-24T04:20:41.854Z,11.50
2018-06-24T04:23:12.674Z,11.50
2018-06-24T04:25:44.214Z,11.50
2018-06-24T04:28:22.739Z,11.50
2018-06-24T04:30:53.795Z,11.50
2018-06-24T04:33:26.821Z,11.50
2018-06-24T04:35:57.725Z,11.60
2018-06-24T04:38:35.732Z,11.70
2018-06-24T04:41:08.389Z,11.80
2018-06-24T04:43:41.849Z,11.80
2018-06-24T04:46:14.416Z,12.00
2018-06-24T04:48:47.053Z,12.10
2018-06-24T04:51:18.471Z,12.30
2018-06-24T04:53:51.229Z,12.50
2018-06-24T04:56:22.486Z,12.70
2018-06-24T04:58:53.658Z,12.80
2018-06-24T05:01:25.051Z,13.00
2018-06-24T05:04:01.406Z,13.10
2018-06-24T05:06:32.834Z,13.10
2018-06-24T05:09:05.104Z,13.30
2018-06-24T05:11:38.086Z,13.30
2018-06-24T05:14:09.833Z,13.50
2018-06-24T05:16:41.113Z,13.60
2018-06-24T05:19:12.454Z,13.70
2018-06-24T05:21:44.272Z,13.80
2018-06-24T05:24:15.570Z,14.10
2018-06-24T05:26:46.922Z,14.20
2018-06-24T05:29:19.449Z,14.30
2018-06-24T05:31:51.511Z,14.40
2018-06-24T05:34:22.814Z,14.50
2018-06-24T05:36:54.666Z,14.50
2018-06-24T05:39:25.404Z,14.50
2018-06-24T05:42:00.936Z,14.50
2018-06-24T05:44:33.858Z,14.60
2018-06-24T05:47:05.092Z,14.70
2018-06-24T05:49:36.612Z,14.70
2018-06-24T05:52:19.326Z,14.80
2018-06-24T05:54:52.397Z,14.90
2018-06-24T05:57:25.145Z,15.00
2018-06-24T06:00:01.562Z,15.10
2018-06-24T06:02:37.349Z,15.20
2018-06-24T06:05:09.308Z,15.30
2018-06-24T06:07:43.013Z,15.40
2018-06-24T06:10:15.026Z,15.40
2018-06-24T06:12:49.519Z,15.60
2018-06-24T06:15:20.686Z,15.70
2018-06-24T06:17:53.116Z,15.80
2018-06-24T06:20:25.165Z,16.00
2018-06-24T06:22:56.661Z,16.30
2018-06-24T06:25:28.806Z,16.50
2018-06-24T06:28:00.888Z,16.70
2018-06-24T06:30:33.638Z,16.70
2018-06-24T06:33:08.331Z,17.00
2018-06-24T06:35:40.987Z,17.20
2018-06-24T06:38:14.464Z,17.30
2018-06-24T06:40:47.891Z,17.40
2018-06-24T06:43:19.189Z,17.40
2018-06-24T06:45:53.628Z,17.40
2018-06-24T06:48:24.500Z,17.40
2018-06-24T06:50:56.070Z,17.40
2018-06-24T06:53:33.024Z,17.30
2018-06-24T06:56:04.560Z,17.00
2018-06-24T06:58:47.499Z,16.90
2018-06-24T07:01:22.945Z,17.00
2018-06-24T07:03:56.091Z,17.10
2018-06-24T07:06:32.512Z,17.10
2018-06-24T07:11:38.069Z,17.30
2018-06-24T07:14:12.554Z,17.40
2018-06-24T07:16:44.772Z,17.60
2018-06-24T07:19:16.358Z,17.80
2018-06-24T07:21:50.010Z,18.00
2018-06-24T07:24:21.479Z,18.20
2018-06-24T07:26:55.160Z,18.30
2018-06-24T07:29:30.320Z,18.30
2018-06-24T07:32:01.742Z,18.20
2018-06-24T07:34:32.909Z,18.20
2018-06-24T07:37:04.300Z,18.30
2018-06-24T07:39:36.110Z,18.60
2018-06-24T07:42:11.400Z,18.80
2018-06-24T07:44:42.300Z,18.70
2018-06-24T07:47:13.226Z,18.50
2018-06-24T07:49:44.306Z,18.30
2018-06-24T07:52:15.047Z,18.10
2018-06-24T07:54:46.557Z,18.10
2018-06-24T07:57:16.947Z,18.40
2018-06-24T07:59:48.802Z,18.60
2018-06-24T08:02:21.558Z,18.80
2018-06-24T08:04:55.729Z,19.10
2018-06-24T08:07:27.149Z,19.30
2018-06-24T08:09:57.959Z,19.30
2018-06-24T08:12:29.915Z,19.30
2018-06-24T08:15:01.546Z,19.00
2018-06-24T08:17:32.383Z,19.20
2018-06-24T08:20:05.045Z,19.00
2018-06-24T08:22:35.708Z,18.80
2018-06-24T08:25:08.445Z,18.70
2018-06-24T08:27:39.658Z,18.60
2018-06-24T08:30:10.926Z,18.60
2018-06-24T08:32:42.230Z,18.60
2018-06-24T08:35:12.858Z,18.70
2018-06-24T08:37:44.241Z,18.90
2018-06-24T08:40:16.379Z,19.00
2018-06-24T08:42:47.599Z,19.20
2018-06-24T08:45:19.183Z,19.50
2018-06-24T08:47:56.375Z,19.40
2018-06-24T08:50:27.404Z,19.50
2018-06-24T08:52:58.163Z,19.40
2018-06-24T08:55:28.973Z,19.10
2018-06-24T08:58:05.944Z,19.20
2018-06-24T09:00:37.196Z,19.20
2018-06-24T09:03:26.781Z,19.10
2018-06-24T09:05:59.628Z,19.30
2018-06-24T09:08:30.833Z,19.10
2018-06-24T09:11:02.578Z,19.20
2018-06-24T09:13:34.838Z,19.60
2018-06-24T09:16:05.718Z,20.00
2018-06-24T09:18:37.724Z,20.00
2018-06-24T09:21:09.195Z,19.90
2018-06-24T09:23:40.329Z,20.40
2018-06-24T09:26:12.509Z,20.40
2018-06-24T09:28:45.008Z,21.00
2018-06-24T09:31:18.041Z,21.60
2018-06-24T09:33:50.669Z,21.80
2018-06-24T09:36:31.043Z,21.70
2018-06-24T09:39:03.201Z,21.80
2018-06-24T09:41:34.652Z,21.50
2018-06-24T09:44:05.519Z,21.40
2018-06-24T09:46:37.482Z,21.30
2018-06-24T09:49:08.429Z,21.60
2018-06-24T09:51:39.118Z,22.00
2018-06-24T09:54:10.799Z,21.90
2018-06-24T09:56:42.287Z,22.10
2018-06-24T09:59:17.209Z,22.80
2018-06-24T10:01:48.236Z,22.90
2018-06-24T10:04:18.882Z,23.40
2018-06-24T10:06:52.059Z,23.90
2018-06-24T10:09:24.599Z,23.20
2018-06-24T10:11:56.478Z,23.00
2018-06-24T10:14:29.479Z,22.80
2018-06-24T10:17:03.145Z,22.90
2018-06-24T10:19:39.330Z,22.90
2018-06-24T10:22:12.116Z,22.70
2018-06-24T10:24:45.961Z,22.50
2018-06-24T10:27:18.717Z,22.70
2018-06-24T10:29:51.193Z,22.80
2018-06-24T10:32:25.011Z,22.60
2018-06-24T10:34:59.803Z,22.60
2018-06-24T10:37:32.805Z,23.00
2018-06-24T10:40:08.599Z,23.30
2018-06-24T10:42:39.719Z,23.40
2018-06-24T10:45:10.821Z,23.70
2018-06-24T10:47:42.132Z,24.00
2018-06-24T10:50:14.727Z,24.10
2018-06-24T10:52:46.039Z,24.00
2018-06-24T10:55:18.178Z,23.80
2018-06-24T10:57:49.233Z,24.30
2018-06-24T11:00:21.097Z,25.20
2018-06-24T11:02:52.458Z,25.50
2018-06-24T11:05:24.532Z,24.60
2018-06-24T11:07:56.183Z,23.70
2018-06-24T11:10:27.750Z,23.30
2018-06-24T11:12:58.898Z,22.80
2018-06-24T11:15:30.328Z,23.10
2018-06-24T11:18:01.794Z,23.30
2018-06-24T11:20:34.274Z,23.00
2018-06-24T11:23:05.374Z,23.10
2018-06-24T11:25:36.460Z,23.40
2018-06-24T11:28:08.624Z,23.20
2018-06-24T11:30:41.057Z,23.10
2018-06-24T11:33:12.679Z,22.90
2018-06-24T11:35:45.136Z,23.50
2018-06-24T11:38:17.216Z,23.40
2018-06-24T11:40:48.733Z,23.40
2018-06-24T11:43:20.477Z,23.30
2018-06-24T11:45:52.033Z,22.90
2018-06-24T11:48:28.184Z,22.80
2018-06-24T11:51:00.442Z,22.90
2018-06-24T11:53:32.071Z,23.60
2018-06-24T11:56:04.858Z,24.00
2018-06-24T12:01:09.022Z,24.50
2018-06-24T12:03:40.085Z,24.60
2018-06-24T12:06:12.553Z,25.40
2018-06-24T12:08:46.241Z,25.60
2018-06-24T12:11:17.174Z,25.50
2018-06-24T12:13:50.080Z,25.50
2018-06-24T12:16:22.629Z,25.60
2018-06-24T12:18:53.258Z,25.50
2018-06-24T12:21:23.564Z,24.40
2018-06-24T12:23:57.881Z,24.10
2018-06-24T12:26:29.059Z,23.70
2018-06-24T12:29:00.303Z,23.40
2018-06-24T12:31:30.837Z,22.90
2018-06-24T12:34:02.632Z,22.70
2018-06-24T12:36:37.874Z,22.10
2018-06-24T12:39:11.971Z,21.70
2018-06-24T12:41:47.228Z,21.80
2018-06-24T12:44:18.568Z,21.90
2018-06-24T12:46:49.016Z,21.70
2018-06-24T12:49:25.630Z,21.50
2018-06-24T12:51:56.966Z,21.30
2018-06-24T12:54:33.995Z,21.50
2018-06-24T12:57:08.358Z,21.10
2018-06-24T12:59:38.275Z,21.10
2018-06-24T13:02:09.697Z,21.30
2018-06-24T13:04:41.310Z,21.50
2018-06-24T13:07:11.875Z,21.60
2018-06-24T13:09:42.006Z,21.60
2018-06-24T13:12:22.656Z,21.30
2018-06-24T13:14:57.269Z,21.20
2018-06-24T13:17:28.307Z,21.40
2018-06-24T13:20:00.053Z,21.40
2018-06-24T13:22:29.790Z,21.30
2018-06-24T13:25:00.349Z,21.40
2018-06-24T13:27:30.514Z,21.30
2018-06-24T13:30:02.935Z,21.10
2018-06-24T13:32:34.318Z,21.10
2018-06-24T13:35:05.131Z,21.20
2018-06-24T13:37:36.375Z,21.40
2018-06-24T13:40:06.873Z,21.20
2018-06-24T13:42:37.726Z,21.20
2018-06-24T13:45:10.457Z,21.10
2018-06-24T13:47:40.327Z,21.10
2018-06-24T13:50:10.986Z,20.80
2018-06-24T13:52:41.691Z,20.50
2018-06-24T13:55:11.607Z,20.70
2018-06-24T13:57:42.160Z,21.00
2018-06-24T14:00:14.050Z,21.30
2018-06-24T14:02:46.726Z,21.40
2018-06-24T14:05:17.223Z,21.30
2018-06-24T14:07:49.926Z,21.30
2018-06-24T14:10:21.159Z,21.20
2018-06-24T14:12:51.507Z,20.80
2018-06-24T14:15:21.627Z,20.90
2018-06-24T14:17:52.217Z,20.80
2018-06-24T14:20:22.406Z,20.80
2018-06-24T14:22:52.043Z,21.10
2018-06-24T14:25:24.110Z,21.20
2018-06-24T14:27:54.619Z,20.90
2018-06-24T14:30:24.812Z,20.70
2018-06-24T14:33:08.518Z,20.20
2018-06-24T14:35:40.196Z,19.90
2018-06-24T14:38:12.868Z,19.70
2018-06-24T14:40:43.968Z,19.40
2018-06-24T14:43:14.739Z,19.30
2018-06-24T14:45:45.596Z,19.10
2018-06-24T14:48:20.642Z,19.10
2018-06-24T14:50:52.264Z,19.20
2018-06-24T14:53:22.357Z,19.10
2018-06-24T14:55:53.213Z,18.90
2018-06-24T14:58:23.101Z,19.00
2018-06-24T15:00:57.637Z,19.30
2018-06-24T15:03:27.753Z,19.40
2018-06-24T15:06:04.647Z,19.60
2018-06-24T15:08:35.748Z,19.90
2018-06-24T15:11:08.276Z,20.20
2018-06-24T15:13:38.262Z,20.70
2018-06-24T15:16:13.631Z,21.10
2018-06-24T15:18:48.848Z,21.40
2018-06-24T15:21:18.356Z,21.40
2018-06-24T15:23:48.216Z,21.00
2018-06-24T15:26:19.674Z,20.60
2018-06-24T15:28:50.598Z,20.10
2018-06-24T15:31:21.101Z,20.00
2018-06-24T15:33:52.981Z,19.80
2018-06-24T15:36:23.446Z,19.70
2018-06-24T15:38:57.919Z,19.70
2018-06-24T15:41:42.815Z,19.70
2018-06-24T15:44:13.013Z,19.60
2018-06-24T15:46:44.388Z,19.40
2018-06-24T15:49:16.384Z,19.30
2018-06-24T15:51:47.195Z,19.40
2018-06-24T15:54:18.463Z,19.20
2018-06-24T15:56:49.124Z,19.10
2018-06-24T15:59:19.882Z,19.10
2018-06-24T16:01:51.666Z,19.10
2018-06-24T16:04:23.122Z,19.20
2018-06-24T16:06:55.741Z,19.20
2018-06-24T16:09:26.775Z,19.20
2018-06-24T16:11:58.502Z,19.10
2018-06-24T16:14:31.006Z,18.80
2018-06-24T16:17:03.169Z,18.80
2018-06-24T16:19:34.579Z,19.00
2018-06-24T16:22:04.998Z,19.30
2018-06-24T16:24:36.829Z,19.30
2018-06-24T16:27:09.046Z,19.30
2018-06-24T16:29:40.389Z,19.20
2018-06-24T16:32:13.684Z,19.20
2018-06-24T16:34:45.559Z,19.20
2018-06-24T16:37:15.696Z,19.20
2018-06-24T16:39:48.677Z,19.20
2018-06-24T16:42:21.349Z,19.40
2018-06-24T16:44:54.342Z,19.40
2018-06-24T16:47:24.847Z,19.10
2018-06-24T16:50:01.055Z,18.80
2018-06-24T16:52:33.710Z,18.80
2018-06-24T16:55:15.348Z,18.70
2018-06-24T16:57:54.703Z,18.70
2018-06-24T17:00:26.930Z,18.80
2018-06-24T17:02:57.101Z,18.70
2018-06-24T17:05:29.031Z,18.70
2018-06-24T17:10:30.445Z,18.70
2018-06-24T17:13:11.049Z,18.70
2018-06-24T17:15:43.105Z,18.50
2018-06-24T17:18:14.099Z,18.50
2018-06-24T17:20:44.737Z,18.50
2018-06-24T17:23:16.316Z,18.30
2018-06-24T17:25:47.038Z,18.20
2018-06-24T17:28:22.542Z,18.30
2018-06-24T17:33:26.183Z,18.30
2018-06-24T17:35:57.932Z,18.20
2018-06-24T17:38:30.191Z,18.20
2018-06-24T17:41:00.972Z,18.20
2018-06-24T17:43:32.031Z,18.00
2018-06-24T17:46:02.376Z,17.90
2018-06-24T17:48:33.533Z,17.80
2018-06-24T17:51:04.414Z,17.70
2018-06-24T17:53:34.707Z,17.80
2018-06-24T17:56:06.656Z,17.80
2018-06-24T17:58:44.271Z,17.90
2018-06-24T18:01:17.010Z,17.90
2018-06-24T18:03:53.698Z,17.80
2018-06-24T18:06:25.717Z,17.60
2018-06-24T18:08:57.448Z,17.60
2018-06-24T18:11:35.466Z,17.50
2018-06-24T18:16:41.520Z,17.60
2018-06-24T18:19:13.777Z,17.70
2018-06-24T18:21:49.287Z,17.70
2018-06-24T18:24:24.182Z,17.60
2018-06-24T18:26:56.411Z,17.60
2018-06-24T18:29:26.865Z,17.50
2018-06-24T18:31:58.017Z,17.60
2018-06-24T18:34:29.703Z,17.60
2018-06-24T18:37:00.730Z,17.70
2018-06-24T18:39:32.388Z,17.80
2018-06-24T18:42:04.540Z,17.80
2018-06-24T18:44:36.815Z,17.70
2018-06-24T18:47:18.341Z,17.70
2018-06-24T18:49:52.973Z,17.80
2018-06-24T18:52:26.094Z,17.80
2018-06-24T18:54:59.671Z,17.80
2018-06-24T18:57:35.033Z,17.90
2018-06-24T19:00:10.168Z,17.70
2018-06-24T19:02:42.506Z,17.50
2018-06-24T19:05:14.961Z,17.50
2018-06-24T19:07:47.520Z,17.50
2018-06-24T19:10:19.667Z,17.30
2018-06-24T19:12:55.814Z,17.10
2018-06-24T19:15:27.174Z,16.90
2018-06-24T19:18:02.930Z,17.00
2018-06-24T19:20:35.227Z,16.90
2018-06-24T19:23:07.441Z,16.90
2018-06-24T19:25:38.999Z,16.90
2018-06-24T19:28:22.443Z,17.00
2018-06-24T19:30:54.562Z,17.00
2018-06-24T19:33:27.126Z,17.00
2018-06-24T19:35:58.649Z,16.70
2018-06-24T19:38:30.375Z,16.50
2018-06-24T19:41:01.754Z,16.40
2018-06-24T19:43:32.259Z,16.20
2018-06-24T19:46:03.368Z,16.00
2018-06-24T19:48:34.379Z,16.10
2018-06-24T19:51:06.768Z,16.20
2018-06-24T19:53:38.248Z,16.30
2018-06-24T19:56:09.597Z,16.30
2018-06-24T19:58:42.302Z,16.40
2018-06-24T20:01:15.316Z,16.30
2018-06-24T20:03:47.873Z,16.20
2018-06-24T20:06:19.660Z,16.20
2018-06-24T20:08:50.874Z,16.20
2018-06-24T20:11:22.640Z,16.20
2018-06-24T20:13:56.045Z,16.10
2018-06-24T20:16:28.207Z,16.10
2018-06-24T20:18:59.888Z,16.00
2018-06-24T20:21:36.798Z,15.90
2018-06-24T20:24:07.567Z,15.80
2018-06-24T20:26:43.979Z,15.80
2018-06-24T20:29:17.342Z,15.80
2018-06-24T20:31:49.019Z,15.80
2018-06-24T20:34:20.431Z,15.70
2018-06-24T20:36:55.448Z,15.70
2018-06-24T20:39:27.429Z,15.80
2018-06-24T20:41:57.741Z,15.80
2018-06-24T20:44:30.553Z,15.80
2018-06-24T20:47:01.873Z,15.80
2018-06-24T20:49:32.736Z,15.80
2018-06-24T20:52:04.644Z,15.80
2018-06-24T20:54:45.399Z,15.80
2018-06-24T20:57:16.068Z,15.80
2018-06-24T20:59:54.083Z,15.70
2018-06-24T21:02:27.533Z,15.60
2018-06-24T21:04:59.656Z,15.60
2018-06-24T21:07:31.908Z,15.60
2018-06-24T21:10:03.952Z,15.60
2018-06-24T21:12:36.693Z,15.50
2018-06-24T21:15:30.959Z,15.60
2018-06-24T21:18:02.437Z,15.60
2018-06-24T21:20:33.845Z,15.60
2018-06-24T21:23:04.945Z,15.70
2018-06-24T21:25:36.720Z,15.70
2018-06-24T21:31:02.497Z,15.70
2018-06-24T21:33:34.249Z,15.70
2018-06-24T21:36:05.461Z,15.70
2018-06-24T21:38:38.224Z,15.70
2018-06-24T21:41:08.727Z,15.50
2018-06-24T21:43:41.749Z,15.20
2018-06-24T21:46:13.720Z,15.00
2018-06-24T21:48:47.130Z,14.80
2018-06-24T21:51:24.748Z,14.70
2018-06-24T21:53:56.618Z,14.60
2018-06-24T21:56:27.980Z,14.50
2018-06-24T21:58:59.434Z,14.50
2018-06-24T22:01:36.560Z,14.60
2018-06-24T22:04:07.512Z,14.50
2018-06-24T22:06:39.157Z,14.50
2018-06-24T22:09:14.690Z,14.60
2018-06-24T22:11:46.740Z,14.60
2018-06-24T22:14:18.438Z,14.60
2018-06-24T22:16:48.573Z,14.60
2018-06-24T22:19:19.265Z,14.60
2018-06-24T22:21:50.175Z,14.60
2018-06-24T22:24:29.050Z,14.60
2018-06-24T22:26:59.785Z,14.50
2018-06-24T22:29:33.069Z,14.60
2018-06-24T22:32:21.317Z,14.60
2018-06-24T22:34:52.680Z,14.50
2018-06-24T22:37:24.632Z,14.50
2018-06-24T22:39:56.603Z,14.50
2018-06-24T22:42:28.235Z,14.50
2018-06-24T22:45:00.516Z,14.50
2018-06-24T22:47:31.807Z,14.50
2018-06-24T22:50:03.894Z,14.50
2018-06-24T22:52:35.278Z,14.50
2018-06-24T22:55:07.365Z,14.60
2018-06-24T22:57:39.461Z,14.60
2018-06-24T23:00:15.692Z,14.60
2018-06-24T23:02:47.446Z,14.60
2018-06-24T23:05:20.061Z,14.60
2018-06-24T23:07:52.182Z,14.70
2018-06-24T23:10:23.652Z,14.70
2018-06-24T23:12:55.656Z,14.70
2018-06-24T23:15:27.120Z,14.70
2018-06-24T23:18:00.015Z,14.60
2018-06-24T23:20:32.353Z,14.70
2018-06-24T23:23:10.730Z,14.60
2018-06-24T23:25:43.210Z,14.70
2018-06-24T23:28:14.422Z,14.60
2018-06-24T23:30:45.886Z,14.60
2018-06-24T23:33:17.116Z,14.60
2018-06-24T23:35:48.452Z,14.50
2018-06-24T23:38:19.995Z,14.50
2018-06-24T23:40:52.269Z,14.60
2018-06-24T23:43:24.003Z,14.60
2018-06-24T23:45:56.192Z,14.60
2018-06-24T23:48:27.442Z,14.70
2018-06-24T23:50:59.734Z,14.70
2018-06-24T23:53:34.001Z,14.80
2018-06-24T23:56:06.057Z,14.80
2018-06-24T23:58:38.112Z,14.80
